Mount Airy, Maryland
Current Conditions -  °F | °C
As of 10:45 AM on Sunday 25 Jan 2015 (Local Time) from KFDK Reporting Station
Overcast Overcast  
Wind Chill: 38°   Ceiling: 4400
Heat Index: 43°   Visibility: 10mi
Dew Point: 28°   Wind: 8mph
Humidity: 57%   Direction: 220°SW
Pressure: 29.88"   Gusts: NA
Location:  39.38°N, 77.15°W
Report Text: KFDK 251545Z 22007KT 10SM OVC044 06/M02 A2988
Loading
Personal Weather Stations






























Interactive Weather Map New forecast layout! Learn more

10-Day Weather Forecast

Advertisements
Track Severe Weather on mobile